Lyman, South Carolina
Current Conditions -  °F | °C
As of 9:53 PM on Monday 22 Dec 2014 (Local Time) from KGSP Reporting Station
Overcast Overcast  
Wind Chill: 33°   Ceiling: 400
Heat Index: 39°   Visibility: 8mi
Dew Point: 38°   Wind: 8mph
Humidity: 96%   Direction: 50°NE
Pressure: 29.99"   Gusts: NA
Location:  34.95°N, 82.13°W
Report Text: KGSP 230253Z 05007KT 8SM OVC004 04/03 A2999 RMK AO2 RAE48 SLP158 P0009 60013 T00390033 58001
Loading
Personal Weather Stations






























Interactive Weather Map New forecast layout! Learn more

10-Day Weather Forecast

Advertisements
Track Severe Weather on mobile